Terminal Aerodrome Forecast
Issued by NWS

Home | Current Version | Previous Version | Text Only | Print | Product List | Glossary On
Versions: 1 2 3 4 5 6 7 8 9 10 11 12 13 14 15 16 17 18 19 20 21 22 23 24 25 26 27 28 29 30 31 32 33 34 35 36 37 38 39 40
000
FTAK31 PANC 261222 AAC
TAFADQ
TAF AMD
PADQ 261222Z 2612/2712 27005KT P6SM VCSH SCT030 OVC050
     FM261700 05010KT 5SM -SN BR BKN025 OVC035
     FM270300 07008KT 2SM -SN BR BKN015 OVC025=

USA.gov is the U.S. government's official web portal to all federal, state and local government web resources and services.